Time;durP1;ratioP1;P1;durP2;ratioP2;P2;SDS_P1;SDS_P2;PMS_P1;PMS_P2;Temp;Humidity;BMP_temperature;BMP_pressure;BME280_temperature;BME280_humidity;BME280_pressure;Samples;Min_cycle;Max_cycle;Signal;HPM_P1;HPM_P2
2022/07/13 00:02:21;;;;;;;;;;;22.80;90.50;;;;;;5067778;28;19982;-74
2022/07/13 00:04:48;;;;;;;;;;;22.80;90.80;;;;;;5068134;28;19983;-74
2022/07/13 00:07:14;;;;;;;;;;;22.90;91.30;;;;;;5062700;28;19986;-75
2022/07/13 00:09:41;;;;;;;;;;;22.80;91.60;;;;;;5070720;28;20043;-73
2022/07/13 00:12:09;;;;;;;;;;;22.80;91.70;;;;;;5067173;28;19932;-74
2022/07/13 00:14:36;;;;;;;;;;;22.80;92.40;;;;;;5066493;28;20023;-73
2022/07/13 00:17:03;;;;;;;;;;;22.80;92.60;;;;;;5067539;28;20019;-74
2022/07/13 00:19:29;;;;;;;;;;;22.80;91.80;;;;;;5068870;28;20423;-74
2022/07/13 00:21:56;;;;;;;;;;;22.70;89.50;;;;;;5066755;28;20015;-73
2022/07/13 00:24:23;;;;;;;;;;;22.80;86.00;;;;;;5069053;28;19946;-73
2022/07/13 00:26:50;;;;;;;;;;;22.80;84.10;;;;;;5065194;28;19999;-73
2022/07/13 00:29:18;;;;;;;;;;;22.80;82.80;;;;;;5067716;28;19931;-73
2022/07/13 00:31:46;;;;;;;;;;;22.90;79.40;;;;;;5058222;28;19928;-73
2022/07/13 00:34:13;;;;;;;;;;;23.00;79.50;;;;;;5069964;28;20410;-73
2022/07/13 00:36:40;;;;;;;;;;;23.00;72.90;;;;;;5067049;28;20295;-73
2022/07/13 00:39:06;;;;;;;;;;;23.10;71.60;;;;;;5068133;28;20015;-72
2022/07/13 00:41:33;;;;;;;;;;;23.10;71.00;;;;;;5071285;28;19959;-73
2022/07/13 00:44:06;;;;;;;;;;;23.20;69.60;;;;;;5072429;28;19967;-73
2022/07/13 00:46:35;;;;;;;;;;;23.20;67.40;;;;;;5071476;28;20024;-73
2022/07/13 00:49:01;;;;;;;;;;;23.20;65.90;;;;;;5069170;28;19935;-73
2022/07/13 00:51:28;;;;;;;;;;;23.20;65.40;;;;;;5071123;28;19928;-73
2022/07/13 00:53:55;;;;;;;;;;;23.30;63.60;;;;;;5069127;28;19932;-74
2022/07/13 00:56:22;;;;;;;;;;;23.20;63.20;;;;;;5069363;28;20015;-74
2022/07/13 00:58:49;;;;;;;;;;;23.30;62.80;;;;;;5074472;28;19931;-75
2022/07/13 01:01:16;;;;;;;;;;;23.20;63.10;;;;;;5071880;28;19935;-75
2022/07/13 01:03:44;;;;;;;;;;;23.20;63.60;;;;;;5071235;28;19931;-75
2022/07/13 01:06:11;;;;;;;;;;;23.10;63.50;;;;;;5068480;28;20019;-75
2022/07/13 01:08:38;;;;;;;;;;;23.10;62.90;;;;;;5071298;28;20030;-75
2022/07/13 01:11:05;;;;;;;;;;;23.10;62.50;;;;;;5072829;28;19978;-74
2022/07/13 01:13:32;;;;;;;;;;;23.10;62.40;;;;;;5073875;28;20268;-74
2022/07/13 01:15:58;;;;;;;;;;;23.00;62.00;;;;;;5069190;28;19978;-74
2022/07/13 01:18:26;;;;;;;;;;;23.00;61.20;;;;;;5072036;28;20016;-74
2022/07/13 01:20:54;;;;;;;;;;;23.00;60.80;;;;;;5072646;28;19968;-73
2022/07/13 01:23:22;;;;;;;;;;;23.00;60.00;;;;;;5071441;28;20442;-74
2022/07/13 01:25:49;;;;;;;;;;;23.00;59.30;;;;;;5068637;28;20011;-74
2022/07/13 01:28:15;;;;;;;;;;;23.00;58.80;;;;;;5071358;28;19971;-74
2022/07/13 01:30:42;;;;;;;;;;;23.10;58.50;;;;;;5068843;28;19990;-75
2022/07/13 01:33:09;;;;;;;;;;;23.10;57.90;;;;;;5071037;28;19931;-75
2022/07/13 01:35:35;;;;;;;;;;;23.10;57.30;;;;;;5068734;28;20338;-74
2022/07/13 01:38:02;;;;;;;;;;;23.10;56.70;;;;;;5073380;28;19986;-74
2022/07/13 01:40:30;;;;;;;;;;;23.10;56.40;;;;;;5072259;28;19928;-74
2022/07/13 01:42:57;;;;;;;;;;;23.10;56.20;;;;;;5067658;28;20348;-74
2022/07/13 01:45:24;;;;;;;;;;;23.20;55.90;;;;;;5070739;28;19928;-72
2022/07/13 01:47:52;;;;;;;;;;;23.10;55.40;;;;;;5071082;28;19978;-75
2022/07/13 01:50:19;;;;;;;;;;;23.10;55.80;;;;;;5070066;28;20007;-74
2022/07/13 01:52:46;;;;;;;;;;;23.10;55.20;;;;;;5069726;28;20033;-74
2022/07/13 01:55:13;;;;;;;;;;;23.10;55.00;;;;;;5071427;28;19964;-74
2022/07/13 01:57:41;;;;;;;;;;;23.10;54.90;;;;;;5069567;28;19925;-75
2022/07/13 02:00:09;;;;;;;;;;;23.10;54.30;;;;;;5068992;28;20015;-74
2022/07/13 02:02:36;;;;;;;;;;;23.20;54.00;;;;;;5067733;28;20015;-73
2022/07/13 02:05:03;;;;;;;;;;;23.10;54.00;;;;;;5072419;28;20020;-75
2022/07/13 02:07:30;;;;;;;;;;;23.10;53.10;;;;;;5070004;28;20007;-74
2022/07/13 02:09:57;;;;;;;;;;;23.10;52.80;;;;;;5070753;28;19924;-74
2022/07/13 02:12:23;;;;;;;;;;;23.10;52.30;;;;;;5075605;28;20015;-75
2022/07/13 02:14:51;;;;;;;;;;;23.10;52.10;;;;;;5067676;28;19924;-74
2022/07/13 02:17:18;;;;;;;;;;;23.10;51.90;;;;;;5069876;28;20015;-74
2022/07/13 02:19:45;;;;;;;;;;;23.10;51.40;;;;;;5069740;28;20414;-75
2022/07/13 02:22:12;;;;;;;;;;;23.10;51.40;;;;;;5067207;28;19924;-74
2022/07/13 02:24:38;;;;;;;;;;;23.10;51.30;;;;;;5070858;28;19930;-74
2022/07/13 02:27:05;;;;;;;;;;;23.10;51.30;;;;;;5068121;28;20417;-74
2022/07/13 02:29:31;;;;;;;;;;;23.10;50.90;;;;;;5069891;28;20363;-74
2022/07/13 02:32:00;;;;;;;;;;;23.10;50.80;;;;;;5070365;28;19959;-74
2022/07/13 02:34:28;;;;;;;;;;;23.10;50.80;;;;;;5068503;28;19928;-74
2022/07/13 02:36:56;;;;;;;;;;;23.10;50.80;;;;;;5070201;28;19924;-74
2022/07/13 02:39:23;;;;;;;;;;;23.10;50.50;;;;;;5065477;28;20462;-74
2022/07/13 02:41:50;;;;;;;;;;;23.10;50.50;;;;;;5066039;28;19982;-74
2022/07/13 02:44:17;;;;;;;;;;;23.10;50.50;;;;;;5071418;28;19925;-74
2022/07/13 02:46:43;;;;;;;;;;;23.10;50.40;;;;;;5069247;28;20015;-74
2022/07/13 02:49:11;;;;;;;;;;;23.20;50.00;;;;;;5070353;28;20025;-75
2022/07/13 02:51:38;;;;;;;;;;;23.20;50.60;;;;;;5068790;28;20028;-74
2022/07/13 02:54:05;;;;;;;;;;;23.20;50.00;;;;;;5070481;28;19932;-75
2022/07/13 02:56:31;;;;;;;;;;;23.20;50.10;;;;;;5068539;28;19925;-75
2022/07/13 02:58:58;;;;;;;;;;;23.30;49.50;;;;;;5069558;28;20053;-74
2022/07/13 03:01:24;;;;;;;;;;;23.30;49.70;;;;;;5068460;28;19976;-75
2022/07/13 03:03:51;;;;;;;;;;;23.20;49.60;;;;;;5069927;28;19940;-75
2022/07/13 03:06:19;;;;;;;;;;;23.20;49.80;;;;;;5070620;28;20015;-75
2022/07/13 03:08:46;;;;;;;;;;;23.20;50.00;;;;;;5069523;28;19924;-75
2022/07/13 03:11:13;;;;;;;;;;;23.20;49.80;;;;;;5069755;28;19932;-74
2022/07/13 03:13:40;;;;;;;;;;;23.10;50.00;;;;;;5071330;28;19924;-75
2022/07/13 03:16:07;;;;;;;;;;;23.10;50.40;;;;;;5068624;28;19924;-74
2022/07/13 03:18:34;;;;;;;;;;;23.10;50.70;;;;;;5064513;28;19971;-74
2022/07/13 03:21:00;;;;;;;;;;;23.10;51.30;;;;;;5066337;28;19936;-73
2022/07/13 03:23:28;;;;;;;;;;;23.00;52.30;;;;;;5067523;28;20007;-73
2022/07/13 03:25:55;;;;;;;;;;;23.00;52.40;;;;;;5065444;28;20007;-74
2022/07/13 03:28:22;;;;;;;;;;;23.00;52.30;;;;;;5061886;28;20011;-74
2022/07/13 03:30:48;;;;;;;;;;;23.00;52.50;;;;;;5066776;28;20044;-74
2022/07/13 03:33:15;;;;;;;;;;;23.00;52.30;;;;;;5068445;28;19933;-75
2022/07/13 03:35:42;;;;;;;;;;;22.90;52.40;;;;;;5071178;28;20062;-74
2022/07/13 03:38:09;;;;;;;;;;;22.90;53.00;;;;;;5068505;28;20391;-75
2022/07/13 03:40:37;;;;;;;;;;;22.80;53.10;;;;;;5067823;28;19960;-73
2022/07/13 03:43:03;;;;;;;;;;;22.80;53.30;;;;;;5068270;28;20019;-74
2022/07/13 03:45:30;;;;;;;;;;;22.80;53.90;;;;;;5068089;28;19935;-74
2022/07/13 03:47:57;;;;;;;;;;;22.80;54.20;;;;;;5066658;28;19924;-74
2022/07/13 03:50:24;;;;;;;;;;;22.80;54.30;;;;;;5068302;28;20004;-74
2022/07/13 03:52:50;;;;;;;;;;;22.80;54.00;;;;;;5067807;28;20458;-74
2022/07/13 03:55:18;;;;;;;;;;;22.80;54.00;;;;;;5064614;28;20012;-74
2022/07/13 03:57:46;;;;;;;;;;;22.80;55.10;;;;;;5063592;28;21005;-74
2022/07/13 04:00:13;;;;;;;;;;;22.70;55.00;;;;;;5058639;28;20073;-73
2022/07/13 04:02:39;;;;;;;;;;;22.70;54.60;;;;;;5065356;28;19931;-73
2022/07/13 04:05:07;;;;;;;;;;;22.60;55.40;;;;;;5063285;28;19982;-75
2022/07/13 04:07:34;;;;;;;;;;;22.60;55.00;;;;;;5062407;28;20350;-74
2022/07/13 04:10:00;;;;;;;;;;;22.70;54.50;;;;;;5061004;28;20433;-73
2022/07/13 04:12:27;;;;;;;;;;;22.70;54.30;;;;;;5067353;28;20443;-75
2022/07/13 04:14:56;;;;;;;;;;;22.70;54.70;;;;;;5068053;28;20372;-73
2022/07/13 04:17:22;;;;;;;;;;;22.70;55.10;;;;;;5064017;28;19929;-74
2022/07/13 04:19:49;;;;;;;;;;;22.70;55.00;;;;;;5065505;28;20014;-73
2022/07/13 04:22:16;;;;;;;;;;;22.70;55.20;;;;;;5066829;28;19994;-73
2022/07/13 04:24:43;;;;;;;;;;;22.70;55.70;;;;;;5058213;28;19928;-73
2022/07/13 04:27:09;;;;;;;;;;;22.70;56.00;;;;;;5057764;28;20567;-73
2022/07/13 04:29:36;;;;;;;;;;;22.70;55.80;;;;;;5058317;28;20185;-75
2022/07/13 04:32:04;;;;;;;;;;;22.70;55.00;;;;;;5058819;28;19935;-75
2022/07/13 04:34:31;;;;;;;;;;;22.60;54.90;;;;;;5065864;28;20008;-73
2022/07/13 04:36:57;;;;;;;;;;;22.70;54.70;;;;;;5063565;28;19938;-73
2022/07/13 04:39:24;;;;;;;;;;;22.60;54.70;;;;;;5065294;28;20435;-73
2022/07/13 04:41:51;;;;;;;;;;;22.70;54.30;;;;;;5064922;28;20003;-74
2022/07/13 04:44:17;;;;;;;;;;;22.80;53.80;;;;;;5068012;28;20421;-76
2022/07/13 04:46:44;;;;;;;;;;;22.80;53.80;;;;;;5056910;28;20306;-74
2022/07/13 04:49:12;;;;;;;;;;;22.80;53.50;;;;;;5058889;28;19933;-73
2022/07/13 04:51:39;;;;;;;;;;;22.90;53.00;;;;;;5057407;28;19978;-73
2022/07/13 04:54:05;;;;;;;;;;;22.90;52.90;;;;;;5062177;28;19925;-73
2022/07/13 04:56:32;;;;;;;;;;;23.00;53.20;;;;;;5063005;28;20399;-74
2022/07/13 04:58:59;;;;;;;;;;;23.00;53.60;;;;;;5060728;28;19936;-74
2022/07/13 05:01:26;;;;;;;;;;;23.10;53.20;;;;;;5060874;28;20043;-73
2022/07/13 05:03:52;;;;;;;;;;;23.10;52.10;;;;;;5061418;28;19924;-74
2022/07/13 05:06:20;;;;;;;;;;;23.10;53.50;;;;;;5060476;28;19941;-73
2022/07/13 05:08:47;;;;;;;;;;;23.10;53.90;;;;;;5065426;28;19925;-75
2022/07/13 05:11:14;;;;;;;;;;;23.00;54.10;;;;;;5062412;28;19963;-74
2022/07/13 05:13:40;;;;;;;;;;;22.90;52.90;;;;;;5065225;28;20011;-74
2022/07/13 05:16:07;;;;;;;;;;;22.90;54.20;;;;;;5062770;28;20017;-74
2022/07/13 05:18:34;;;;;;;;;;;22.90;53.20;;;;;;5061271;28;19985;-74
2022/07/13 05:21:01;;;;;;;;;;;23.00;53.80;;;;;;5063700;28;19939;-74
2022/07/13 05:23:29;;;;;;;;;;;23.10;54.10;;;;;;5066246;28;20371;-74
2022/07/13 05:25:56;;;;;;;;;;;23.10;54.20;;;;;;5066759;28;19952;-73
2022/07/13 05:28:22;;;;;;;;;;;23.20;53.70;;;;;;5071795;28;20022;-73
2022/07/13 05:30:50;;;;;;;;;;;23.20;53.40;;;;;;5070685;28;19931;-74
2022/07/13 05:33:19;;;;;;;;;;;23.20;53.90;;;;;;5070963;28;19928;-74
2022/07/13 05:35:46;;;;;;;;;;;23.20;53.50;;;;;;5070366;28;19924;-75
2022/07/13 05:38:13;;;;;;;;;;;23.10;53.20;;;;;;5072959;28;20024;-75
2022/07/13 05:40:41;;;;;;;;;;;23.20;54.30;;;;;;5069730;28;19971;-74
2022/07/13 05:43:07;;;;;;;;;;;23.20;54.00;;;;;;5071937;28;20282;-74
2022/07/13 05:45:34;;;;;;;;;;;23.20;54.50;;;;;;5071554;28;19924;-74
2022/07/13 05:48:01;;;;;;;;;;;23.20;54.20;;;;;;5070451;28;19978;-75
2022/07/13 05:50:27;;;;;;;;;;;23.20;54.60;;;;;;5069771;28;20070;-75
2022/07/13 05:52:54;;;;;;;;;;;23.20;54.50;;;;;;5070478;28;19946;-74
2022/07/13 05:55:21;;;;;;;;;;;23.10;54.70;;;;;;5071974;28;20010;-75
2022/07/13 05:57:49;;;;;;;;;;;23.10;55.00;;;;;;5067410;28;19932;-74
2022/07/13 06:00:15;;;;;;;;;;;23.20;55.10;;;;;;5067953;28;20023;-75
2022/07/13 06:02:42;;;;;;;;;;;23.30;55.60;;;;;;5071472;28;19925;-75
2022/07/13 06:05:09;;;;;;;;;;;23.30;55.40;;;;;;5073508;28;19924;-75
2022/07/13 06:07:36;;;;;;;;;;;23.40;55.20;;;;;;5066889;28;20023;-74
2022/07/13 06:10:03;;;;;;;;;;;23.50;55.20;;;;;;5055722;28;19971;-74
2022/07/13 06:12:30;;;;;;;;;;;23.60;55.10;;;;;;5074773;28;20020;-74
2022/07/13 06:14:58;;;;;;;;;;;23.50;55.20;;;;;;5072983;28;20007;-75
2022/07/13 06:17:25;;;;;;;;;;;23.60;55.70;;;;;;5068314;28;19924;-75
2022/07/13 06:19:52;;;;;;;;;;;23.80;55.30;;;;;;5071600;28;20015;-74
2022/07/13 06:22:18;;;;;;;;;;;23.80;55.10;;;;;;5067538;28;20469;-75
2022/07/13 06:24:45;;;;;;;;;;;23.80;55.00;;;;;;5070963;28;20353;-75
2022/07/13 06:27:12;;;;;;;;;;;23.80;54.90;;;;;;5070504;28;20007;-75
2022/07/13 06:29:38;;;;;;;;;;;23.90;55.10;;;;;;5071911;28;19924;-75
2022/07/13 06:32:08;;;;;;;;;;;23.90;55.20;;;;;;5069127;28;20403;-75
2022/07/13 06:34:35;;;;;;;;;;;24.10;55.30;;;;;;5069227;28;19931;-74
2022/07/13 06:37:01;;;;;;;;;;;24.30;54.90;;;;;;5069798;28;19940;-75
2022/07/13 06:39:28;;;;;;;;;;;24.30;54.40;;;;;;5068796;28;19928;-75
2022/07/13 06:41:55;;;;;;;;;;;24.30;54.30;;;;;;5064450;28;19928;-75
2022/07/13 06:44:22;;;;;;;;;;;24.40;54.30;;;;;;5071156;28;19932;-76
2022/07/13 06:46:49;;;;;;;;;;;24.70;54.00;;;;;;5066988;28;19995;-75
2022/07/13 06:49:17;;;;;;;;;;;25.10;53.20;;;;;;5068885;28;20563;-75
2022/07/13 06:51:43;;;;;;;;;;;26.20;50.90;;;;;;5069358;28;19969;-75
2022/07/13 06:54:10;;;;;;;;;;;26.10;49.60;;;;;;5070272;28;19924;-77
2022/07/13 06:56:37;;;;;;;;;;;25.90;50.00;;;;;;5067127;28;20015;-74
2022/07/13 06:59:03;;;;;;;;;;;25.80;50.40;;;;;;5070520;28;19971;-74
2022/07/13 07:01:30;;;;;;;;;;;25.70;50.70;;;;;;5065438;28;19925;-73
2022/07/13 07:03:57;;;;;;;;;;;25.60;51.20;;;;;;5073748;28;19967;-74
2022/07/13 07:06:25;;;;;;;;;;;25.60;51.90;;;;;;5072413;28;19931;-74
2022/07/13 07:08:51;;;;;;;;;;;25.60;52.10;;;;;;5072622;28;19960;-74
2022/07/13 07:11:18;;;;;;;;;;;25.80;51.00;;;;;;5064001;28;20397;-75
2022/07/13 07:13:45;;;;;;;;;;;25.90;50.80;;;;;;5067650;28;20009;-74
2022/07/13 07:16:12;;;;;;;;;;;25.90;50.10;;;;;;5062211;28;19931;-74
2022/07/13 07:18:38;;;;;;;;;;;26.00;50.70;;;;;;5066563;28;19925;-73
2022/07/13 07:21:05;;;;;;;;;;;26.00;50.00;;;;;;5067272;28;19924;-74
2022/07/13 07:23:33;;;;;;;;;;;26.30;50.20;;;;;;5071518;28;20015;-75
2022/07/13 07:26:00;;;;;;;;;;;27.10;48.90;;;;;;5068659;28;19928;-74
2022/07/13 07:28:27;;;;;;;;;;;28.10;46.00;;;;;;5067092;28;19982;-74
2022/07/13 07:30:53;;;;;;;;;;;27.90;45.40;;;;;;5067504;28;19936;-74
2022/07/13 07:33:20;;;;;;;;;;;27.70;44.60;;;;;;5071208;28;19967;-73
2022/07/13 07:35:47;;;;;;;;;;;28.20;44.40;;;;;;5065697;28;19933;-74
2022/07/13 07:38:14;;;;;;;;;;;28.40;43.70;;;;;;5069637;28;20007;-73
2022/07/13 07:40:42;;;;;;;;;;;29.70;42.30;;;;;;5064656;28;19968;-72
2022/07/13 07:43:09;;;;;;;;;;;31.60;35.80;;;;;;5065253;28;20342;-72
2022/07/13 07:45:35;;;;;;;;;;;32.00;32.70;;;;;;5063870;28;19932;-72
2022/07/13 07:48:02;;;;;;;;;;;33.60;29.20;;;;;;5064881;28;20011;-73
2022/07/13 07:50:29;;;;;;;;;;;33.70;26.40;;;;;;5058044;28;20007;-73
2022/07/13 07:52:55;;;;;;;;;;;32.90;26.10;;;;;;5057302;28;20028;-73
2022/07/13 07:55:22;;;;;;;;;;;31.50;27.30;;;;;;5067935;28;19962;-73
2022/07/13 07:57:51;;;;;;;;;;;30.10;29.50;;;;;;5066971;28;19931;-73
2022/07/13 08:00:18;;;;;;;;;;;29.10;32.40;;;;;;5069781;28;19924;-73
2022/07/13 08:02:45;;;;;;;;;;;28.50;33.00;;;;;;5060856;28;20658;-73
2022/07/13 08:05:14;;;;;;;;;;;27.80;35.40;;;;;;5061953;28;19925;-73
2022/07/13 08:07:42;;;;;;;;;;;27.50;36.80;;;;;;5064546;28;19932;-72
2022/07/13 08:10:09;;;;;;;;;;;27.40;37.90;;;;;;5067695;28;20007;-71
2022/07/13 08:12:36;;;;;;;;;;;27.50;38.40;;;;;;5065117;28;19925;-71
2022/07/13 08:15:07;;;;;;;;;;;27.90;37.60;;;;;;5070211;28;20011;-74
2022/07/13 08:17:34;;;;;;;;;;;28.70;35.70;;;;;;5064779;28;20368;-72
2022/07/13 08:20:00;;;;;;;;;;;31.00;33.00;;;;;;5065610;28;20000;-71
2022/07/13 08:22:27;;;;;;;;;;;33.60;27.70;;;;;;5065554;28;20024;-71
2022/07/13 08:24:54;;;;;;;;;;;34.70;23.80;;;;;;5066886;28;19993;-71
2022/07/13 08:27:21;;;;;;;;;;;33.30;23.40;;;;;;5061684;28;19924;-72
2022/07/13 08:29:48;;;;;;;;;;;30.90;26.30;;;;;;5067360;28;20290;-73
2022/07/13 08:32:16;;;;;;;;;;;30.00;27.30;;;;;;5062647;28;20643;-72
2022/07/13 08:40:25;;;;;;;;;;;29.40;29.70;;;;;;4984490;28;19926;-72
2022/07/13 08:42:52;;;;;;;;;;;29.20;30.00;;;;;;4986783;28;19996;-73
2022/07/13 08:45:19;;;;;;;;;;;29.20;31.10;;;;;;5024313;28;19972;-73
2022/07/13 08:47:47;;;;;;;;;;;29.80;29.70;;;;;;5063439;28;20425;-72
2022/07/13 08:50:14;;;;;;;;;;;29.60;29.60;;;;;;5066991;28;20423;-72
2022/07/13 08:52:42;;;;;;;;;;;29.70;30.80;;;;;;5066175;28;19963;-72
2022/07/13 08:55:09;;;;;;;;;;;30.80;28.50;;;;;;5066337;28;19971;-72
2022/07/13 08:57:36;;;;;;;;;;;32.80;25.80;;;;;;5064029;28;19931;-72
2022/07/13 09:00:05;;;;;;;;;;;33.80;22.70;;;;;;5069089;28;19964;-73
2022/07/13 09:02:32;;;;;;;;;;;33.90;22.20;;;;;;5066648;28;19931;-73
2022/07/13 09:05:02;;;;;;;;;;;33.40;23.20;;;;;;5071550;28;20272;-73
2022/07/13 09:07:28;;;;;;;;;;;34.20;21.90;;;;;;5066247;28;19928;-73
2022/07/13 09:09:56;;;;;;;;;;;35.20;20.00;;;;;;5067212;28;19929;-73
2022/07/13 09:12:24;;;;;;;;;;;34.60;19.80;;;;;;5070509;28;19924;-72
2022/07/13 09:14:52;;;;;;;;;;;34.60;19.80;;;;;;5070380;28;19997;-72
2022/07/13 09:17:34;;;;;;;;;;;35.60;18.70;;;;;;5068618;28;20269;-72
2022/07/13 09:20:04;;;;;;;;;;;;;;;;;;5061034;28;20027;-70
2022/07/13 09:22:32;;;;;;;;;;;36.00;16.20;;;;;;5065963;28;19924;-72
2022/07/13 09:25:00;;;;;;;;;;;36.00;16.10;;;;;;5067344;28;19931;-73
2022/07/13 09:27:27;;;;;;;;;;;35.50;15.90;;;;;;5068862;28;20027;-74
2022/07/13 09:29:53;;;;;;;;;;;34.50;16.90;;;;;;5066501;28;20031;-73
2022/07/13 09:32:20;;;;;;;;;;;33.70;16.60;;;;;;5064139;28;20039;-73
2022/07/13 09:34:48;;;;;;;;;;;33.70;16.90;;;;;;5070152;28;19924;-74
2022/07/13 09:37:15;;;;;;;;;;;34.30;16.20;;;;;;5067815;28;19973;-73
2022/07/13 09:40:06;;;;;;;;;;;34.20;16.10;;;;;;5068137;28;20062;-74
2022/07/13 09:42:33;;;;;;;;;;;33.80;15.40;;;;;;5065099;28;19971;-74
2022/07/13 09:47:47;;;;;;;;;;;35.40;13.80;;;;;;5067575;28;19932;-74
2022/07/13 09:50:15;;;;;;;;;;;36.10;13.00;;;;;;5071119;28;19931;-73
2022/07/13 09:52:43;;;;;;;;;;;35.10;14.40;;;;;;5064960;28;19929;-71
2022/07/13 09:55:12;;;;;;;;;;;34.20;15.20;;;;;;5067941;28;19971;-71
2022/07/13 09:57:44;;;;;;;;;;;33.40;16.10;;;;;;5065255;28;20021;-72
2022/07/13 10:00:13;;;;;;;;;;;33.40;16.50;;;;;;5067858;28;20023;-73
2022/07/13 10:02:41;;;;;;;;;;;33.50;16.70;;;;;;5065325;28;20376;-73
2022/07/13 10:05:11;;;;;;;;;;;34.40;16.20;;;;;;5066644;28;19940;-70
2022/07/13 10:07:38;;;;;;;;;;;34.10;15.40;;;;;;5063899;28;20311;-74
2022/07/13 10:10:05;;;;;;;;;;;32.80;16.70;;;;;;5069333;28;19986;-73
2022/07/13 10:12:36;;;;;;;;;;;32.50;18.30;;;;;;5061576;28;20440;-74
2022/07/13 10:15:03;;;;;;;;;;;33.00;18.40;;;;;;5067623;28;19924;-69
2022/07/13 10:17:30;;;;;;;;;;;33.10;17.40;;;;;;5068298;28;20900;-69
2022/07/13 10:20:02;;;;;;;;;;;32.60;18.10;;;;;;5067760;28;20021;-69
2022/07/13 10:22:31;;;;;;;;;;;31.90;19.40;;;;;;5067153;28;19928;-69
2022/07/13 10:24:59;;;;;;;;;;;31.20;20.00;;;;;;5065639;28;20339;-69
2022/07/13 10:27:26;;;;;;;;;;;31.00;20.90;;;;;;5059967;28;19933;-69
2022/07/13 10:29:55;;;;;;;;;;;30.70;21.00;;;;;;5055427;28;19924;-68
2022/07/13 10:32:22;;;;;;;;;;;30.70;21.60;;;;;;5058169;28;19928;-68
2022/07/13 10:34:50;;;;;;;;;;;30.80;21.70;;;;;;5068409;28;19930;-69
2022/07/13 10:37:17;;;;;;;;;;;30.60;21.80;;;;;;5069073;28;19924;-70
2022/07/13 10:39:58;;;;;;;;;;;30.60;22.10;;;;;;5062592;28;20418;-67
2022/07/13 10:42:25;;;;;;;;;;;30.90;21.60;;;;;;5061876;28;19996;-67
2022/07/13 10:44:52;;;;;;;;;;;31.30;21.50;;;;;;5070236;28;19925;-70
2022/07/13 10:47:21;;;;;;;;;;;31.60;20.80;;;;;;5065201;28;20027;-68
2022/07/13 10:49:48;;;;;;;;;;;31.70;20.60;;;;;;5067118;28;19970;-68
2022/07/13 10:52:47;;;;;;;;;;;31.60;21.10;;;;;;5068928;28;19928;-68
2022/07/13 10:55:24;;;;;;;;;;;31.80;19.70;;;;;;5066459;28;20158;-67
2022/07/13 10:57:51;;;;;;;;;;;31.70;20.50;;;;;;5068203;28;19970;-67
2022/07/13 11:00:18;;;;;;;;;;;31.60;19.90;;;;;;5062000;28;19997;-68
2022/07/13 11:02:49;;;;;;;;;;;31.30;20.50;;;;;;5066533;28;19964;-68
2022/07/13 11:05:17;;;;;;;;;;;31.30;20.80;;;;;;5065622;28;19974;-68
2022/07/13 11:07:44;;;;;;;;;;;31.50;20.70;;;;;;5062303;28;20277;-68
2022/07/13 11:10:18;;;;;;;;;;;31.80;20.30;;;;;;5066967;28;20376;-68
2022/07/13 11:12:58;;;;;;;;;;;32.10;19.90;;;;;;5063039;28;19924;-68
2022/07/13 11:15:41;;;;;;;;;;;32.30;19.80;;;;;;5065329;28;19924;-68
2022/07/13 11:18:31;;;;;;;;;;;32.50;19.40;;;;;;5064949;28;19932;-68
2022/07/13 11:20:59;;;;;;;;;;;32.30;19.30;;;;;;5062726;28;20019;-68
2022/07/13 11:26:14;;;;;;;;;;;31.90;19.80;;;;;;5054999;28;19932;-67
2022/07/13 11:28:46;;;;;;;;;;;32.30;19.90;;;;;;5068997;28;19939;-67
2022/07/13 11:31:13;;;;;;;;;;;32.30;19.80;;;;;;5066053;28;19925;-67
2022/07/13 11:33:50;;;;;;;;;;;32.20;19.70;;;;;;5063802;28;19924;-67
2022/07/13 11:36:19;;;;;;;;;;;32.00;18.70;;;;;;5065003;28;19925;-67
2022/07/13 11:38:46;;;;;;;;;;;32.00;18.30;;;;;;5049499;28;20045;-66
2022/07/13 11:41:17;;;;;;;;;;;32.00;17.30;;;;;;5048446;28;19929;-67
2022/07/13 11:43:47;;;;;;;;;;;32.10;16.10;;;;;;5048399;28;19928;-68
2022/07/13 11:46:14;;;;;;;;;;;32.20;16.60;;;;;;5050898;28;20379;-67
2022/07/13 11:48:41;;;;;;;;;;;32.20;18.00;;;;;;5051439;28;20403;-67
2022/07/13 11:51:09;;;;;;;;;;;32.50;19.30;;;;;;5053340;28;19924;-67
2022/07/13 11:53:36;;;;;;;;;;;33.00;17.20;;;;;;5051325;28;19933;-66
2022/07/13 11:56:07;;;;;;;;;;;32.90;16.00;;;;;;5052321;28;20292;-66
2022/07/13 11:58:35;;;;;;;;;;;32.10;16.70;;;;;;5047119;28;20362;-66
2022/07/13 12:01:02;;;;;;;;;;;32.30;17.80;;;;;;5054759;28;19960;-68
2022/07/13 12:03:32;;;;;;;;;;;32.30;17.70;;;;;;5054159;28;22691;-67
2022/07/13 12:06:03;;;;;;;;;;;32.30;17.40;;;;;;5053076;28;19925;-66
2022/07/13 12:08:33;;;;;;;;;;;32.00;17.10;;;;;;5052668;28;19931;-68
2022/07/13 12:11:00;;;;;;;;;;;31.60;17.70;;;;;;5050676;28;20409;-66
2022/07/13 12:13:27;;;;;;;;;;;31.30;18.00;;;;;;5057425;28;20023;-66
2022/07/13 12:15:53;;;;;;;;;;;31.30;18.20;;;;;;5058123;28;19928;-67
2022/07/13 12:18:20;;;;;;;;;;;31.60;17.50;;;;;;5063159;28;19959;-68
2022/07/13 12:20:47;;;;;;;;;;;32.00;17.40;;;;;;5057731;28;20023;-67
2022/07/13 12:23:15;;;;;;;;;;;32.40;16.50;;;;;;5061180;28;19940;-68
2022/07/13 12:25:43;;;;;;;;;;;32.40;16.50;;;;;;5061319;28;20417;-68
2022/07/13 12:28:10;;;;;;;;;;;32.20;16.80;;;;;;5062954;28;20024;-68
2022/07/13 12:30:38;;;;;;;;;;;32.40;17.00;;;;;;5062681;28;19933;-68
2022/07/13 12:33:06;;;;;;;;;;;32.30;16.70;;;;;;5064833;28;19982;-67
2022/07/13 12:35:35;;;;;;;;;;;32.30;17.20;;;;;;5064254;28;20384;-67
2022/07/13 12:38:04;;;;;;;;;;;32.10;16.80;;;;;;5066846;28;20404;-67
2022/07/13 12:40:39;;;;;;;;;;;32.10;17.00;;;;;;5068224;28;19940;-66
2022/07/13 12:43:16;;;;;;;;;;;32.20;16.40;;;;;;5068102;28;19940;-68
2022/07/13 12:45:44;;;;;;;;;;;32.10;16.20;;;;;;5066313;28;19932;-67
2022/07/13 12:48:14;;;;;;;;;;;32.40;16.10;;;;;;5064278;28;20392;-67
2022/07/13 12:50:41;;;;;;;;;;;32.50;15.80;;;;;;5066335;28;20021;-67
2022/07/13 12:53:08;;;;;;;;;;;32.00;17.40;;;;;;5073369;28;20067;-67
2022/07/13 12:55:50;;;;;;;;;;;31.70;17.10;;;;;;5072692;28;20422;-67
2022/07/13 12:58:19;;;;;;;;;;;31.80;16.90;;;;;;5065749;28;19924;-67
2022/07/13 13:00:46;;;;;;;;;;;31.90;17.40;;;;;;5061108;28;20019;-68
2022/07/13 13:03:13;;;;;;;;;;;31.60;17.60;;;;;;5071797;28;19925;-68
2022/07/13 13:05:40;;;;;;;;;;;31.70;17.00;;;;;;5070497;28;19931;-68
2022/07/13 13:08:06;;;;;;;;;;;31.90;16.70;;;;;;5072061;28;19939;-68
2022/07/13 13:10:33;;;;;;;;;;;31.90;16.70;;;;;;5068153;28;19956;-68
2022/07/13 13:13:00;;;;;;;;;;;32.10;16.80;;;;;;5066128;28;20011;-68
2022/07/13 13:15:28;;;;;;;;;;;32.30;17.20;;;;;;5060730;28;20022;-66
2022/07/13 13:17:54;;;;;;;;;;;31.60;18.50;;;;;;5068117;28;19935;-66
2022/07/13 13:20:21;;;;;;;;;;;31.30;20.70;;;;;;5067491;28;20018;-66
2022/07/13 13:22:48;;;;;;;;;;;31.20;21.00;;;;;;5068164;28;19924;-66
2022/07/13 13:25:14;;;;;;;;;;;30.10;22.90;;;;;;5064896;28;20054;-67
2022/07/13 13:27:41;;;;;;;;;;;30.40;23.40;;;;;;5062794;28;20035;-69
2022/07/13 13:32:54;;;;;;;;;;;29.90;24.00;;;;;;5064424;28;20093;-67
2022/07/13 13:35:21;;;;;;;;;;;29.90;23.80;;;;;;5068615;28;19932;-67
2022/07/13 13:37:48;;;;;;;;;;;29.10;25.00;;;;;;5067113;28;19968;-65
2022/07/13 13:40:14;;;;;;;;;;;29.20;24.70;;;;;;5064969;28;19966;-65
2022/07/13 13:42:41;;;;;;;;;;;29.20;24.30;;;;;;5062755;28;19987;-66
2022/07/13 13:45:08;;;;;;;;;;;28.90;25.20;;;;;;5067430;28;20341;-67
2022/07/13 13:47:35;;;;;;;;;;;28.90;25.30;;;;;;5064211;28;19971;-66
2022/07/13 13:50:04;;;;;;;;;;;28.90;25.60;;;;;;5066238;28;20008;-67
2022/07/13 13:52:30;;;;;;;;;;;28.90;25.50;;;;;;5066598;28;19978;-67
2022/07/13 13:54:57;;;;;;;;;;;28.30;26.10;;;;;;5067240;28;20023;-67
2022/07/13 13:57:24;;;;;;;;;;;27.70;26.50;;;;;;5066361;28;20371;-68
2022/07/13 13:59:50;;;;;;;;;;;27.70;27.40;;;;;;5068409;28;20011;-66
2022/07/13 14:02:17;;;;;;;;;;;27.90;26.90;;;;;;5067134;28;20062;-67
2022/07/13 14:04:44;;;;;;;;;;;28.10;26.70;;;;;;5064825;28;20284;-67
2022/07/13 14:07:12;;;;;;;;;;;28.40;26.20;;;;;;5066972;28;20011;-67
2022/07/13 14:09:39;;;;;;;;;;;28.50;25.90;;;;;;5071054;28;19924;-67
2022/07/13 14:12:06;;;;;;;;;;;28.70;25.30;;;;;;5070641;28;19940;-68
2022/07/13 14:14:33;;;;;;;;;;;29.40;24.20;;;;;;5069835;28;20319;-68
2022/07/13 14:16:59;;;;;;;;;;;29.30;23.70;;;;;;5069873;28;19999;-67
2022/07/13 14:19:26;;;;;;;;;;;29.50;23.30;;;;;;5066281;28;20008;-66
2022/07/13 14:21:53;;;;;;;;;;;29.60;22.80;;;;;;5060957;28;20462;-68
2022/07/13 14:24:23;;;;;;;;;;;29.20;22.90;;;;;;5064124;28;19964;-67
2022/07/13 14:26:53;;;;;;;;;;;29.40;22.90;;;;;;5065501;28;20431;-66
2022/07/13 14:29:20;;;;;;;;;;;29.70;22.80;;;;;;5063424;28;20721;-66
2022/07/13 14:31:47;;;;;;;;;;;28.90;23.20;;;;;;5067167;28;19994;-67
2022/07/13 14:34:14;;;;;;;;;;;28.80;24.00;;;;;;5070873;28;19994;-66
2022/07/13 14:36:40;;;;;;;;;;;29.50;23.00;;;;;;5068790;28;19924;-66